createdAt,value
2022-08-29T00:01:06.951Z,0.43
2022-08-29T00:03:35.004Z,0.60
2022-08-29T00:06:03.118Z,0.40
2022-08-29T00:08:31.429Z,0.50
2022-08-29T00:10:59.643Z,0.43
2022-08-29T00:13:27.737Z,0.50
2022-08-29T00:15:55.950Z,0.40
2022-08-29T00:18:25.373Z,0.43
2022-08-29T00:20:53.468Z,0.50
2022-08-29T00:23:21.508Z,0.43
2022-08-29T00:25:49.842Z,0.43
2022-08-29T00:28:19.192Z,0.67
2022-08-29T00:30:47.213Z,0.50
2022-08-29T00:33:15.231Z,0.60
2022-08-29T00:35:45.150Z,0.43
2022-08-29T00:38:15.751Z,0.67
2022-08-29T00:40:51.378Z,0.60
2022-08-29T00:43:20.397Z,0.40
2022-08-29T00:45:51.841Z,0.33
2022-08-29T00:48:19.851Z,0.50
2022-08-29T00:50:51.872Z,0.60
2022-08-29T00:53:31.045Z,0.50
2022-08-29T00:55:59.475Z,0.33
2022-08-29T00:58:31.454Z,0.40
2022-08-29T01:00:59.538Z,0.53
2022-08-29T01:03:28.529Z,0.50
2022-08-29T01:05:58.361Z,0.43
2022-08-29T01:08:26.409Z,0.60
2022-08-29T01:11:13.031Z,0.77
2022-08-29T01:13:42.312Z,0.30
2022-08-29T01:16:10.879Z,0.60
2022-08-29T01:18:39.056Z,0.30
2022-08-29T01:21:13.257Z,0.60
2022-08-29T01:23:43.795Z,0.40
2022-08-29T01:26:13.296Z,0.87
2022-08-29T01:28:45.319Z,0.50
2022-08-29T01:31:15.559Z,0.77
2022-08-29T01:34:03.527Z,0.50
2022-08-29T01:36:34.799Z,0.40
2022-08-29T01:39:02.820Z,0.53
2022-08-29T01:41:32.958Z,0.57
2022-08-29T01:44:02.817Z,0.40
2022-08-29T01:46:32.723Z,0.70
2022-08-29T01:49:02.135Z,0.50
2022-08-29T01:51:30.138Z,0.40
2022-08-29T01:53:58.168Z,0.50
2022-08-29T01:56:27.301Z,0.40
2022-08-29T01:58:56.893Z,0.40
2022-08-29T02:01:26.636Z,0.30
2022-08-29T02:03:55.827Z,0.40
2022-08-29T02:06:23.832Z,0.50
2022-08-29T02:08:51.851Z,0.40
2022-08-29T02:11:20.153Z,0.50
2022-08-29T02:13:49.636Z,0.70
2022-08-29T02:16:19.525Z,0.63
2022-08-29T02:18:47.568Z,0.30
2022-08-29T02:21:16.969Z,0.40
2022-08-29T02:23:45.241Z,0.40
2022-08-29T02:26:13.346Z,0.50
2022-08-29T02:28:41.495Z,0.60
2022-08-29T02:31:09.583Z,0.60
2022-08-29T02:33:39.332Z,0.50
2022-08-29T02:36:07.600Z,0.70
2022-08-29T02:38:35.975Z,0.53
2022-08-29T02:41:05.411Z,0.60
2022-08-29T02:43:33.592Z,0.43
2022-08-29T02:46:01.802Z,0.90
2022-08-29T02:48:30.052Z,0.50
2022-08-29T02:51:00.094Z,0.60
2022-08-29T02:53:29.644Z,0.50
2022-08-29T02:55:57.683Z,0.60
2022-08-29T02:58:25.899Z,0.60
2022-08-29T03:00:54.062Z,0.67
2022-08-29T03:03:22.384Z,0.60
2022-08-29T03:05:50.901Z,0.53
2022-08-29T03:08:20.290Z,0.50
2022-08-29T03:10:48.310Z,0.80
2022-08-29T03:13:18.186Z,1.00
2022-08-29T03:15:46.237Z,1.07
2022-08-29T03:18:14.730Z,0.90
2022-08-29T03:20:43.267Z,0.70
2022-08-29T03:23:11.734Z,0.90
2022-08-29T03:25:41.128Z,1.30
2022-08-29T03:28:09.152Z,1.00
2022-08-29T03:30:37.291Z,0.90
2022-08-29T03:33:07.823Z,0.93
2022-08-29T03:35:39.172Z,1.40
2022-08-29T03:38:07.291Z,1.00
2022-08-29T03:40:35.824Z,1.80
2022-08-29T03:43:05.551Z,1.33
2022-08-29T03:45:33.696Z,1.27
2022-08-29T03:48:01.906Z,1.50
2022-08-29T03:50:29.933Z,1.40
2022-08-29T03:52:57.991Z,1.77
2022-08-29T03:55:26.164Z,2.03
2022-08-29T03:57:56.029Z,1.90
2022-08-29T04:00:25.618Z,2.07
2022-08-29T04:02:55.575Z,1.70
2022-08-29T04:05:23.672Z,1.40
2022-08-29T04:07:52.665Z,1.93
2022-08-29T04:10:22.386Z,1.67
2022-08-29T04:12:54.515Z,1.30
2022-08-29T04:15:23.294Z,1.30
2022-08-29T04:17:54.430Z,1.40
2022-08-29T04:20:25.356Z,1.13
2022-08-29T04:22:54.294Z,1.30
2022-08-29T04:25:23.244Z,1.40
2022-08-29T04:27:51.256Z,1.50
2022-08-29T04:30:20.459Z,1.03
2022-08-29T04:32:49.800Z,1.20
2022-08-29T04:35:19.494Z,1.40
2022-08-29T04:37:47.533Z,1.20
2022-08-29T04:40:17.849Z,1.93
2022-08-29T04:42:46.821Z,1.57
2022-08-29T04:45:16.427Z,1.43
2022-08-29T04:47:44.585Z,1.10
2022-08-29T04:50:14.112Z,0.90
2022-08-29T04:52:43.924Z,1.43
2022-08-29T04:55:12.535Z,1.07
2022-08-29T04:57:40.652Z,1.20
2022-08-29T05:00:12.853Z,0.93
2022-08-29T05:02:41.158Z,0.83
2022-08-29T05:05:09.932Z,1.23
2022-08-29T05:07:38.405Z,1.30
2022-08-29T05:10:10.119Z,0.83
2022-08-29T05:12:38.448Z,0.80
2022-08-29T05:15:07.151Z,1.03
2022-08-29T05:17:35.203Z,0.90
2022-08-29T05:20:05.056Z,0.77
2022-08-29T05:22:33.313Z,0.80
2022-08-29T05:25:03.229Z,0.90
2022-08-29T05:27:39.994Z,0.90
2022-08-29T05:30:09.788Z,0.70
2022-08-29T05:32:38.512Z,0.80
2022-08-29T05:35:07.125Z,0.83
2022-08-29T05:37:36.564Z,0.63
2022-08-29T05:40:05.842Z,0.43
2022-08-29T05:42:35.537Z,0.60
2022-08-29T05:45:06.240Z,0.70
2022-08-29T05:47:34.326Z,0.70
2022-08-29T05:50:02.448Z,0.87
2022-08-29T05:52:30.514Z,0.63
2022-08-29T05:54:58.536Z,0.80
2022-08-29T05:57:27.542Z,0.97
2022-08-29T05:59:58.486Z,0.60
2022-08-29T06:02:26.629Z,0.60
2022-08-29T06:04:55.079Z,1.20
2022-08-29T06:07:23.408Z,0.63
2022-08-29T06:09:52.951Z,0.80
2022-08-29T06:12:21.060Z,1.10
2022-08-29T06:14:52.456Z,1.20
2022-08-29T06:17:21.866Z,1.10
2022-08-29T06:19:51.335Z,1.00
2022-08-29T06:22:19.875Z,1.70
2022-08-29T06:24:48.234Z,1.53
2022-08-29T06:27:17.241Z,1.93
2022-08-29T06:29:45.607Z,2.40
2022-08-29T06:32:13.789Z,2.13
2022-08-29T06:34:43.517Z,2.53
2022-08-29T06:37:11.874Z,2.13
2022-08-29T06:39:40.225Z,2.50
2022-08-29T06:42:08.633Z,2.57
2022-08-29T06:44:40.186Z,2.47
2022-08-29T06:47:12.382Z,2.77
2022-08-29T06:49:40.985Z,3.07
2022-08-29T06:52:10.671Z,3.50
2022-08-29T06:54:39.048Z,2.93
2022-08-29T06:57:07.402Z,3.63
2022-08-29T06:59:35.708Z,4.50
2022-08-29T07:02:04.048Z,3.77
2022-08-29T07:04:32.727Z,3.27
2022-08-29T07:07:02.034Z,4.17
2022-08-29T07:09:32.378Z,3.67
2022-08-29T07:12:00.729Z,4.20
2022-08-29T07:14:29.061Z,3.23
2022-08-29T07:16:57.627Z,3.90
2022-08-29T07:19:25.971Z,3.77
2022-08-29T07:21:58.137Z,3.67
2022-08-29T07:24:26.742Z,3.20
2022-08-29T07:26:56.151Z,2.73
2022-08-29T07:29:24.504Z,1.77
2022-08-29T07:31:52.841Z,2.57
2022-08-29T07:34:21.382Z,2.23
2022-08-29T07:36:49.720Z,2.33
2022-08-29T07:39:19.068Z,1.87
2022-08-29T07:41:47.725Z,2.83
2022-08-29T07:44:17.638Z,2.83
2022-08-29T07:46:46.033Z,2.37
2022-08-29T07:49:14.401Z,2.67
2022-08-29T07:51:44.259Z,2.47
2022-08-29T07:54:16.572Z,2.10
2022-08-29T07:56:45.105Z,1.77
2022-08-29T07:59:13.440Z,1.30
2022-08-29T08:01:43.246Z,1.30
2022-08-29T08:04:11.638Z,0.93
2022-08-29T08:06:40.853Z,1.10
2022-08-29T08:09:11.109Z,1.50
2022-08-29T08:11:40.585Z,1.10
2022-08-29T08:14:08.952Z,1.43
2022-08-29T08:16:37.315Z,1.67
2022-08-29T08:19:07.088Z,0.97
2022-08-29T08:21:35.855Z,1.30
2022-08-29T08:24:04.613Z,1.00
2022-08-29T08:26:33.708Z,1.30
2022-08-29T08:29:02.052Z,0.97
2022-08-29T08:31:30.510Z,0.77
2022-08-29T08:33:59.034Z,1.10
2022-08-29T08:36:29.864Z,0.97
2022-08-29T08:38:58.526Z,0.67
2022-08-29T08:41:30.359Z,0.90
2022-08-29T08:43:59.103Z,1.23
2022-08-29T08:46:29.583Z,1.33
2022-08-29T08:48:58.135Z,0.90
2022-08-29T08:51:29.843Z,1.00
2022-08-29T08:53:58.834Z,0.70
2022-08-29T08:56:30.493Z,0.63
2022-08-29T08:58:59.779Z,0.90
2022-08-29T09:01:29.200Z,0.80
2022-08-29T09:04:16.186Z,0.60
2022-08-29T09:06:54.941Z,0.73
2022-08-29T09:09:29.067Z,0.87
2022-08-29T09:12:01.766Z,0.83
2022-08-29T09:14:41.100Z,0.50
2022-08-29T09:17:09.246Z,0.97
2022-08-29T09:19:37.447Z,0.70
2022-08-29T09:22:11.971Z,0.83
2022-08-29T09:24:43.856Z,0.87
2022-08-29T09:27:18.567Z,0.70
2022-08-29T09:29:46.920Z,0.60
2022-08-29T09:32:18.981Z,0.90
2022-08-29T09:35:08.346Z,0.90
2022-08-29T09:37:38.514Z,0.80
2022-08-29T09:40:10.786Z,1.00
2022-08-29T09:42:39.817Z,0.77
2022-08-29T09:45:23.869Z,0.70
2022-08-29T09:47:52.211Z,0.67
2022-08-29T09:50:22.000Z,1.03
2022-08-29T09:52:55.098Z,0.80
2022-08-29T09:55:25.463Z,0.73
2022-08-29T09:57:54.425Z,0.67
2022-08-29T10:00:27.043Z,0.60
2022-08-29T10:02:56.275Z,1.03
2022-08-29T10:05:34.968Z,0.70
2022-08-29T10:08:26.282Z,0.80
2022-08-29T10:10:55.478Z,0.77
2022-08-29T10:13:28.933Z,0.90
2022-08-29T10:16:02.908Z,0.83
2022-08-29T10:18:37.902Z,0.90
2022-08-29T10:21:16.787Z,0.80
2022-08-29T10:23:55.432Z,0.87
2022-08-29T10:26:31.056Z,0.83
2022-08-29T10:29:03.402Z,0.40
2022-08-29T10:31:35.820Z,0.50
2022-08-29T10:34:15.551Z,0.90
2022-08-29T10:36:49.240Z,0.87
2022-08-29T10:39:21.743Z,0.93
2022-08-29T10:41:56.341Z,0.60
2022-08-29T10:44:29.770Z,0.93
2022-08-29T10:47:21.720Z,0.70
2022-08-29T10:49:59.491Z,0.70
2022-08-29T10:52:30.292Z,0.60
2022-08-29T10:55:04.199Z,0.63
2022-08-29T10:57:54.778Z,0.60
2022-08-29T11:00:24.414Z,0.57
2022-08-29T11:02:57.105Z,0.80
2022-08-29T11:05:26.262Z,0.87
2022-08-29T11:07:55.924Z,0.60
2022-08-29T11:10:27.300Z,1.00
2022-08-29T11:12:58.001Z,1.03
2022-08-29T11:15:27.913Z,0.77
2022-08-29T11:18:00.151Z,0.80
2022-08-29T11:20:31.703Z,1.00
2022-08-29T11:23:01.370Z,0.73
2022-08-29T11:25:32.745Z,0.60
2022-08-29T11:28:06.251Z,0.90
2022-08-29T11:30:41.070Z,1.00
2022-08-29T11:33:16.709Z,0.73
2022-08-29T11:35:49.306Z,0.50
2022-08-29T11:38:32.521Z,0.60
2022-08-29T11:41:27.157Z,0.77
2022-08-29T11:43:59.045Z,0.70
2022-08-29T11:46:37.632Z,0.77
2022-08-29T11:49:36.020Z,0.70
2022-08-29T11:52:23.426Z,0.70
2022-08-29T11:55:21.162Z,0.60
2022-08-29T11:57:59.263Z,0.77
2022-08-29T12:00:39.053Z,0.67
2022-08-29T12:03:29.166Z,0.70
2022-08-29T12:06:01.744Z,0.60
2022-08-29T12:08:37.421Z,0.60
2022-08-29T12:11:05.924Z,0.57
2022-08-29T12:14:03.642Z,0.50
2022-08-29T12:16:50.237Z,0.70
2022-08-29T12:19:49.855Z,0.70
2022-08-29T12:22:46.631Z,0.70
2022-08-29T12:25:44.953Z,1.43
2022-08-29T12:28:46.966Z,0.90
2022-08-29T12:32:02.372Z,0.60
2022-08-29T12:34:44.348Z,0.90
2022-08-29T12:37:26.342Z,1.30
2022-08-29T12:40:05.817Z,0.67
2022-08-29T12:42:37.957Z,0.50
2022-08-29T12:45:07.248Z,0.80
2022-08-29T12:47:42.835Z,0.60
2022-08-29T12:50:19.301Z,0.83
2022-08-29T12:52:59.336Z,1.07
2022-08-29T12:55:29.250Z,0.57
2022-08-29T12:57:57.798Z,0.60
2022-08-29T13:00:27.099Z,0.90
2022-08-29T13:03:01.759Z,0.70
2022-08-29T13:05:31.234Z,0.60
2022-08-29T13:08:00.434Z,0.77
2022-08-29T13:10:29.163Z,1.20
2022-08-29T13:13:05.709Z,0.87
2022-08-29T13:15:33.861Z,0.90
2022-08-29T13:18:03.319Z,0.60
2022-08-29T13:20:48.982Z,0.67
2022-08-29T13:23:27.701Z,0.70
2022-08-29T13:25:58.345Z,0.70
2022-08-29T13:28:40.477Z,0.80
2022-08-29T13:31:30.618Z,0.80
2022-08-29T13:34:15.720Z,0.90
2022-08-29T13:36:47.763Z,0.90
2022-08-29T13:39:26.602Z,0.90
2022-08-29T13:42:19.903Z,0.80
2022-08-29T13:45:00.155Z,0.63
2022-08-29T13:47:29.376Z,0.77
2022-08-29T13:49:59.851Z,0.73
2022-08-29T13:52:31.387Z,0.70
2022-08-29T13:55:00.097Z,0.87
2022-08-29T13:57:31.779Z,0.80
2022-08-29T13:59:59.937Z,1.03
2022-08-29T14:02:28.650Z,0.70
2022-08-29T14:04:57.065Z,0.70
2022-08-29T14:07:29.624Z,0.60
2022-08-29T14:09:57.720Z,0.70
2022-08-29T14:12:30.414Z,0.80
2022-08-29T14:15:06.524Z,0.60
2022-08-29T14:17:36.301Z,0.70
2022-08-29T14:20:06.414Z,0.70
2022-08-29T14:22:35.792Z,0.30
2022-08-29T14:25:03.856Z,0.90
2022-08-29T14:27:32.010Z,0.70
2022-08-29T14:30:00.504Z,0.83
2022-08-29T14:32:28.564Z,0.50
2022-08-29T14:34:56.675Z,0.67
2022-08-29T14:37:25.493Z,0.90
2022-08-29T14:39:55.214Z,1.03
2022-08-29T14:42:23.301Z,1.07
2022-08-29T14:44:51.380Z,1.07
2022-08-29T14:47:19.415Z,0.83
2022-08-29T14:49:49.623Z,0.90
2022-08-29T14:52:17.642Z,1.00
2022-08-29T14:54:45.674Z,0.67
2022-08-29T14:57:15.135Z,0.70
2022-08-29T14:59:43.165Z,0.87
2022-08-29T15:02:11.355Z,0.80
2022-08-29T15:04:39.491Z,0.80
2022-08-29T15:07:07.704Z,0.80
2022-08-29T15:09:35.726Z,0.70
2022-08-29T15:12:04.215Z,0.83
2022-08-29T15:14:34.713Z,0.80
2022-08-29T15:17:02.853Z,0.80
2022-08-29T15:20:17.774Z,0.60
2022-08-29T15:22:19.931Z,0.83
2022-08-29T15:24:55.428Z,1.23
2022-08-29T15:27:27.382Z,0.60
2022-08-29T15:29:57.429Z,0.57
2022-08-29T15:32:25.568Z,0.70
2022-08-29T15:34:53.593Z,0.53
2022-08-29T15:37:21.665Z,0.67
2022-08-29T15:39:49.982Z,0.67
2022-08-29T15:42:28.625Z,0.80
2022-08-29T15:44:59.472Z,1.20
2022-08-29T15:47:32.316Z,0.77
2022-08-29T15:50:00.350Z,1.03
2022-08-29T15:52:30.932Z,0.90
2022-08-29T15:54:59.288Z,0.57
2022-08-29T15:57:27.572Z,0.67
2022-08-29T15:59:58.859Z,0.60
2022-08-29T16:02:27.545Z,0.60
2022-08-29T16:04:57.197Z,0.83
2022-08-29T16:07:29.102Z,0.73
2022-08-29T16:09:57.634Z,0.50
2022-08-29T16:12:26.984Z,0.83
2022-08-29T16:15:00.063Z,0.90
2022-08-29T16:17:31.551Z,0.70
2022-08-29T16:19:59.866Z,0.60
2022-08-29T16:22:28.415Z,0.73
2022-08-29T16:24:56.543Z,0.90
2022-08-29T16:27:24.761Z,0.57
2022-08-29T16:29:52.820Z,0.63
2022-08-29T16:32:20.891Z,0.47
2022-08-29T16:34:50.899Z,1.00
2022-08-29T16:37:18.879Z,0.50
2022-08-29T16:39:46.941Z,0.87
2022-08-29T16:42:14.948Z,0.80
2022-08-29T16:44:43.122Z,0.90
2022-08-29T16:47:11.706Z,0.50
2022-08-29T16:49:39.722Z,0.70
2022-08-29T16:52:09.180Z,0.50
2022-08-29T16:54:37.231Z,0.50
2022-08-29T16:57:05.649Z,0.60
2022-08-29T16:59:37.143Z,0.80
2022-08-29T17:02:05.602Z,0.70
2022-08-29T17:04:33.831Z,0.97
2022-08-29T17:07:02.503Z,0.57
2022-08-29T17:09:31.360Z,0.90
2022-08-29T17:12:02.236Z,0.53
2022-08-29T17:14:30.645Z,0.70
2022-08-29T17:17:00.624Z,0.60
2022-08-29T17:19:29.040Z,0.60
2022-08-29T17:22:01.562Z,0.60
2022-08-29T17:24:31.071Z,0.90
2022-08-29T17:26:59.185Z,0.57
2022-08-29T17:29:27.344Z,0.80
2022-08-29T17:31:55.359Z,0.47
2022-08-29T17:34:23.817Z,0.57
2022-08-29T17:36:51.861Z,0.60
2022-08-29T17:39:21.446Z,0.80
2022-08-29T17:41:52.121Z,0.53
2022-08-29T17:44:20.221Z,0.70
2022-08-29T17:46:48.552Z,0.50
2022-08-29T17:49:16.622Z,1.00
2022-08-29T17:51:44.695Z,0.90
2022-08-29T17:54:21.872Z,0.40
2022-08-29T17:56:52.146Z,0.90
2022-08-29T17:59:20.540Z,0.67
2022-08-29T18:01:48.758Z,0.50
2022-08-29T18:04:16.943Z,0.57
2022-08-29T18:06:45.358Z,0.50
2022-08-29T18:09:13.675Z,0.73
2022-08-29T18:11:43.799Z,0.73
2022-08-29T18:14:13.283Z,0.80
2022-08-29T18:16:41.420Z,0.90
2022-08-29T18:19:09.793Z,0.63
2022-08-29T18:21:37.809Z,0.57
2022-08-29T18:24:06.564Z,0.60
2022-08-29T18:26:34.874Z,0.63
2022-08-29T18:29:03.033Z,0.60
2022-08-29T18:31:32.511Z,0.60
2022-08-29T18:34:01.529Z,1.13
2022-08-29T18:36:30.128Z,0.50
2022-08-29T18:38:58.175Z,0.70
2022-08-29T18:41:26.722Z,0.60
2022-08-29T18:43:54.868Z,0.60
2022-08-29T18:46:23.131Z,0.70
2022-08-29T18:48:52.776Z,0.60
2022-08-29T18:51:21.183Z,0.77
2022-08-29T18:53:49.202Z,0.63
2022-08-29T18:56:17.350Z,0.70
2022-08-29T18:58:45.375Z,0.83
2022-08-29T19:01:14.446Z,0.50
2022-08-29T19:03:43.733Z,0.53
2022-08-29T19:06:13.752Z,0.70
2022-08-29T19:08:42.865Z,0.30
2022-08-29T19:11:11.388Z,0.60
2022-08-29T19:13:39.729Z,0.87
2022-08-29T19:16:09.597Z,0.60
2022-08-29T19:18:37.978Z,0.63
2022-08-29T19:21:06.644Z,0.53
2022-08-29T19:23:37.443Z,0.80
2022-08-29T19:26:08.898Z,0.97
2022-08-29T19:28:36.955Z,0.90
2022-08-29T19:31:06.525Z,0.80
2022-08-29T19:33:35.515Z,0.80
2022-08-29T19:36:03.838Z,0.80
2022-08-29T19:38:32.105Z,0.77
2022-08-29T19:41:01.582Z,1.00
2022-08-29T19:43:30.970Z,0.63
2022-08-29T19:45:59.320Z,0.80
2022-08-29T19:48:27.422Z,1.00
2022-08-29T19:50:55.514Z,0.77
2022-08-29T19:53:26.145Z,1.00
2022-08-29T19:55:55.068Z,1.17
2022-08-29T19:58:31.112Z,0.57
2022-08-29T20:01:00.000Z,0.73
2022-08-29T20:03:28.895Z,1.27
2022-08-29T20:05:57.217Z,1.30
2022-08-29T20:08:25.797Z,1.03
2022-08-29T20:10:56.402Z,0.70
2022-08-29T20:13:28.217Z,0.73
2022-08-29T20:16:02.938Z,0.60
2022-08-29T20:18:31.139Z,0.63
2022-08-29T20:20:59.156Z,1.03
2022-08-29T20:23:27.495Z,1.20
2022-08-29T20:25:55.541Z,0.93
2022-08-29T20:28:25.158Z,0.90
2022-08-29T20:30:53.282Z,1.23
2022-08-29T20:33:21.493Z,1.20
2022-08-29T20:36:08.931Z,1.50
2022-08-29T20:38:37.117Z,1.50
2022-08-29T20:41:05.269Z,1.30
2022-08-29T20:43:38.544Z,1.23
2022-08-29T20:46:07.999Z,1.00
2022-08-29T20:48:36.011Z,1.60
2022-08-29T20:51:05.723Z,1.13
2022-08-29T20:53:34.002Z,1.13
2022-08-29T20:56:02.132Z,1.27
2022-08-29T20:58:30.196Z,1.63
2022-08-29T21:00:59.846Z,2.00
2022-08-29T21:03:45.622Z,1.40
2022-08-29T21:06:14.115Z,2.00
2022-08-29T21:08:42.287Z,1.70
2022-08-29T21:11:12.012Z,2.07
2022-08-29T21:13:43.379Z,2.43
2022-08-29T21:16:13.085Z,2.47
2022-08-29T21:18:41.647Z,2.77
2022-08-29T21:21:15.215Z,3.67
2022-08-29T21:23:43.213Z,4.90
2022-08-29T21:26:11.616Z,5.27
2022-08-29T21:28:39.727Z,4.93
2022-08-29T21:31:10.527Z,4.77
2022-08-29T21:33:40.158Z,4.97
2022-08-29T21:36:11.438Z,5.10
2022-08-29T21:38:39.520Z,4.73
2022-08-29T21:41:09.864Z,5.40
2022-08-29T21:43:38.306Z,4.00
2022-08-29T21:46:15.053Z,4.47
2022-08-29T21:48:47.027Z,5.00
2022-08-29T21:51:18.120Z,4.23
2022-08-29T21:53:46.848Z,4.80
2022-08-29T21:56:14.910Z,4.37
2022-08-29T21:58:43.198Z,4.60
2022-08-29T22:01:11.537Z,4.43
2022-08-29T22:03:39.615Z,5.17
2022-08-29T22:06:11.278Z,6.10
2022-08-29T22:08:39.455Z,4.93
2022-08-29T22:11:12.734Z,4.73
2022-08-29T22:13:41.092Z,4.63
2022-08-29T22:16:27.092Z,4.23
2022-08-29T22:18:55.497Z,4.00
2022-08-29T22:21:25.113Z,4.43
2022-08-29T22:23:53.124Z,4.20
2022-08-29T22:26:21.174Z,4.23
2022-08-29T22:28:49.245Z,3.90
2022-08-29T22:31:17.358Z,3.50
2022-08-29T22:33:45.689Z,2.33
2022-08-29T22:36:14.017Z,3.00
2022-08-29T22:38:44.058Z,3.07
2022-08-29T22:41:12.345Z,4.40
2022-08-29T22:43:41.644Z,3.23
2022-08-29T22:46:11.848Z,3.43
2022-08-29T22:48:40.611Z,3.77
2022-08-29T22:51:13.142Z,3.43
2022-08-29T22:53:41.607Z,4.00
2022-08-29T22:56:12.327Z,3.47
2022-08-29T22:58:40.320Z,2.93
2022-08-29T23:01:08.898Z,3.17
2022-08-29T23:03:39.612Z,3.00
2022-08-29T23:06:08.198Z,3.67
2022-08-29T23:08:36.230Z,3.50
2022-08-29T23:11:04.229Z,3.10
2022-08-29T23:13:34.496Z,3.70
2022-08-29T23:16:04.811Z,3.03
2022-08-29T23:18:32.897Z,3.47
2022-08-29T23:21:00.901Z,2.50
2022-08-29T23:23:29.004Z,2.90
2022-08-29T23:25:57.188Z,3.07
2022-08-29T23:28:25.200Z,2.90
2022-08-29T23:30:55.287Z,2.90
2022-08-29T23:33:24.984Z,2.67
2022-08-29T23:35:53.001Z,3.07
2022-08-29T23:38:22.372Z,2.83
2022-08-29T23:40:51.280Z,2.73
2022-08-29T23:43:19.501Z,2.43
2022-08-29T23:45:47.529Z,2.80
2022-08-29T23:48:16.958Z,2.60
2022-08-29T23:50:49.726Z,2.20
2022-08-29T23:53:17.932Z,3.27
2022-08-29T23:55:48.427Z,2.33
2022-08-29T23:58:16.457Z,2.40
